Flight Track Log - Related Links

Times and Time Zones

All times are in EDT time to prevent confusion due to time zone crossing. See the N465TP flight status page for this flight to view local times or setup timezone preferences in your user account.

Time Position Orientation Groundspeed Altitude Reporting Facility
EDT Latitude Longitude Course Direction KTS MPH feet Rate Location/Type
Tue 07:27:06 PM 44.9522 -105.0758 261° West 144 166 11,100  Level Denver Center
Tue 07:28:08 PM 44.9464 -105.1306 261° West 143 165 12,700 1,548 Climbing Denver Center
Tue 07:29:10 PM 44.9442 -105.1856 267° West 141 162 14,300 1,403 Climbing Denver Center
Tue 07:30:12 PM 44.9386 -105.2408 262° West 141 162 15,600 1,154 Climbing Denver Center
Tue 07:31:20 PM 44.9339 -105.3150 265° West 157 181 16,800 600 Climbing Salt Lake Center
Tue 07:32:22 PM 44.9275 -105.3889 263° West 181 208 16,900 732 Climbing Salt Lake Center
Tue 07:33:23 PM 44.9186 -105.4617 260° West 189 217 18,300 1,463 Climbing Salt Lake Center
Tue 07:34:25 PM 44.9147 -105.5217 265° West 164 189 19,900 1,500 Climbing Salt Lake Center
Tue 07:35:27 PM 44.9069 -105.5933 261° West 155 178 21,400 1,024 Climbing Salt Lake Center
Tue 07:36:28 PM 44.9014 -105.6597 263° West 165 190 22,000 293 Climbing Salt Lake Center
Tue 07:37:30 PM 44.8944 -105.7383 263° West 190 219 22,000  Level Salt Lake Center
Tue 07:38:32 PM 44.8847 -105.8214 261° West 210 242 22,000  Level Salt Lake Center
Tue 07:39:33 PM 44.8769 -105.9067 263° West 218 251 22,000  Level Salt Lake Center
Tue 07:40:32 PM 44.8667 -105.9914 260° West 217 250 22,000  Level Denver Center
Tue 07:41:34 PM 44.8594 -106.0764 263° West 218 251 22,000  Level Denver Center
Tue 07:42:36 PM 44.8494 -106.1606 261° West 218 251 22,000  Level Denver Center
Tue 07:43:40 PM 44.8403 -106.2619 263° West 220 253 22,000  Level Salt Lake Center
Tue 07:44:41 PM 44.8319 -106.3469 262° West 220 253 22,000  Level Salt Lake Center
Tue 07:45:43 PM 44.8219 -106.4336 261° West 224 258 22,000  Level Salt Lake Center
Tue 07:46:45 PM 44.8139 -106.5200 263° West 223 257 22,000  Level Salt Lake Center
Tue 07:47:46 PM 44.8042 -106.6083 261° West 227 261 22,000  Level Salt Lake Center
Tue 07:48:48 PM 44.7944 -106.6967 261° West 229 264 22,000  Level Salt Lake Center
Tue 07:49:49 PM 44.7847 -106.7883 262° West 234 269 22,000  Level Salt Lake Center
Tue 07:50:51 PM 44.7744 -106.8925 262° West 228 262 22,000  Level Salt Lake Center
Tue 07:51:52 PM 44.7644 -106.9806 261° West 227 261 22,000  Level Salt Lake Center
Tue 07:52:54 PM 44.7556 -107.0678 262° West 226 260 22,000  Level Salt Lake Center
Tue 07:53:56 PM 44.7450 -107.1564 261° West 229 264 22,000  Level Salt Lake Center
Tue 07:54:57 PM 44.7347 -107.2439 261° West 228 262 22,000  Level Salt Lake Center
Tue 07:55:59 PM 44.7247 -107.3333 261° West 231 266 22,000  Level Salt Lake Center
Tue 07:57:00 PM 44.7150 -107.4233 261° West 232 267 22,000  Level Salt Lake Center
Tue 07:58:02 PM 44.7042 -107.5119 260° West 231 266 22,000  Level Salt Lake Center
Tue 07:59:03 PM 44.6917 -107.6183 261° West 229 264 22,000 -49 Level Salt Lake Center
Tue 08:00:04 PM 44.6817 -107.7081 261° West 230 265 21,900  Descending Salt Lake Center
Tue 08:01:06 PM 44.6708 -107.7989 261° West 234 269 22,000 48 Climbing Salt Lake Center
Tue 08:02:08 PM 44.6594 -107.8906 260° West 236 272 22,000  Level Salt Lake Center
Tue 08:03:09 PM 44.6475 -107.9833 260° West 239 275 22,000  Level Salt Lake Center
Tue 08:04:10 PM 44.6364 -108.0756 260° West 239 275 22,000  Level Salt Lake Center
Tue 08:05:12 PM 44.6275 -108.1650 262° West 233 268 22,000 -49 Level Salt Lake Center
Tue 08:06:13 PM 44.6164 -108.2561 260° West 235 270 21,900 -829 Descending Salt Lake Center
Tue 08:07:15 PM 44.6064 -108.3428 261° West 230 265 20,300 -1,561 Descending Salt Lake Center
Tue 08:08:16 PM 44.5961 -108.4267 260° West 221 254 18,700 -1,475 Descending Salt Lake Center
Tue 08:09:17 PM 44.5853 -108.5114 260° West 220 253 17,300 -1,377 Descending Salt Lake Center

Login

Don't have an account? Register now (free) for customized features, flight alerts, and more!